Aviation Digital Data Service (ADDS)

Output produced by METARs form (1333 UTC 24 November 2014)
found at http://www.aviationweather.gov/adds/metars/
 
KBMI 241316Z 2413/2512 27017G27KT 3SM -SN BR OVC007 
     TEMPO 2413/2415 1SM -SN BR OVC005 
     FM241600 27022G32KT P6SM OVC012 
     TEMPO 2416/2418 OVC007 
     FM242200 25018G28KT P6SM OVC015 
     FM250100 25015KT P6SM OVC015